Flight Track Log - Related Links

Times and Time Zones

All times are in EDT time to prevent confusion due to time zone crossing. See the CPZ5734 flight status page for this flight to view local times or setup timezone preferences in your user account.

Time Position Orientation Groundspeed Altitude Reporting Facility
EDT Latitude Longitude Course Direction KTS MPH feet Rate Location/Type
Fri 12:02:54 AM 40.8108 -112.0006 99° East 181 208 4,700  Level Salt Lake Center
Fri 12:04:07 AM 40.8769 -112.0092 354° North 219 252 6,500 1,403 Climbing Salt Lake Center
Fri 12:04:11 AM 40.8767 -112.0072 101° East 199 229 6,500 2,327 Level Salt Lake Center
Fri 12:04:56 AM 40.9361 -112.0147 355° North 259 298 8,400 2,323 Climbing Salt Lake Center
Fri 12:05:00 AM 41.0331 -111.7047 146° Southeast  Level FlightAware Approximate
Fri 12:05:13 AM 40.9503 -112.0169 353° North 259 298 8,900  Level Salt Lake Center
Fri 12:06:00 AM 40.9315 -111.6133 146° Southeast  Level FlightAware Approximate
Fri 12:06:14 AM 41.0233 -111.9939 13° North 297 342 11,200  Level Salt Lake Center
Fri 12:07:00 AM 40.9089 -111.4620 101° East  Level FlightAware Approximate
Fri 12:07:15 AM 41.0114 -111.8881 98° East 318 366 13,400  Level Salt Lake Center
Fri 12:08:00 AM 40.8940 -111.3012 99° East  Level FlightAware Approximate
Fri 12:08:16 AM 40.9681 -111.7531 113° Southeast 358 412 14,600  Level Salt Lake Center
Fri 12:09:18 AM 40.9322 -111.6225 110° East 381 438 16,300 1,707 Climbing Salt Lake Center
Fri 12:10:19 AM 40.9331 -111.4792 90° East 393 452 18,100 1,721 Climbing Salt Lake Center
Fri 12:11:20 AM 40.9356 -111.3319 89° East 402 463 19,800 1,659 Climbing Salt Lake Center
Fri 12:12:22 AM 40.9372 -111.1806 89° East 412 474 21,500 1,463 Climbing Salt Lake Center
Fri 12:13:23 AM 40.9394 -111.0236 89° East 426 490 22,800 1,328 Climbing Salt Lake Center
Fri 12:14:24 AM 40.9411 -110.8619 89° East 440 506 24,200 1,512 Climbing Salt Lake Center
Fri 12:15:26 AM 40.9450 -110.6653 88° East 447 514 25,900 1,415 Climbing Salt Lake Center
Fri 12:16:27 AM 40.9458 -110.5103 90° East 452 520 27,100 1,131 Climbing Salt Lake Center
Fri 12:17:28 AM 40.9483 -110.3233 89° East 457 526 28,200 927 Climbing Salt Lake Center
Fri 12:18:30 AM 40.9489 -110.1603 90° East 463 533 29,000 732 Climbing Salt Lake Center
Fri 12:19:31 AM 40.9497 -109.9953 90° East 468 539 29,700 885 Climbing Salt Lake Center
Fri 12:20:32 AM 40.9503 -109.8039 90° East 469 540 30,800 927 Climbing Salt Lake Center
Fri 12:21:34 AM 40.9508 -109.6394 90° East 469 540 31,600 878 Climbing Salt Lake Center
Fri 12:22:35 AM 40.9511 -109.4481 90° East 469 540 32,600 787 Climbing Salt Lake Center
Fri 12:23:36 AM 40.9514 -109.2844 90° East 468 539 33,200 639 Climbing Salt Lake Center
Fri 12:24:37 AM 40.9508 -109.0917 90° East 472 543 33,900 683 Climbing Salt Lake Center
Fri 12:25:39 AM 40.9511 -108.9272 90° East 472 543 34,600 537 Climbing Salt Lake Center
Fri 12:26:40 AM 40.9506 -108.7656 90° East 466 536 35,000 197 Climbing Salt Lake Center
Fri 12:27:41 AM 40.9492 -108.5719 90° East 474 545 35,000  Level Salt Lake Center
Fri 12:28:43 AM 40.9486 -108.4028 90° East 481 554 35,000  Level Salt Lake Center
Fri 12:29:44 AM 40.9450 -108.2042 91° East 486 559 35,000  Level Salt Lake Center
Fri 12:30:55 AM 40.9433 -108.0042 91° East 485 558 35,000  Level Denver Center
Fri 12:31:54 AM 40.9411 -107.8319 91° East 488 562 35,000  Level Denver Center
Fri 12:32:57 AM 40.9394 -107.6294 91° East 493 567 35,000  Level Denver Center
Fri 12:33:56 AM 40.9361 -107.4558 91° East 495 570 35,000  Level Denver Center
Fri 12:34:56 AM 40.9331 -107.2819 91° East 495 570 35,000  Level Denver Center
Fri 12:35:59 AM 40.9294 -107.0792 91° East 495 570 35,000  Level Denver Center
Fri 12:37:00 AM 40.9256 -106.9025 92° East 501 577 35,000  Level Denver Center
Fri 12:38:01 AM 40.9222 -106.7253 91° East 504 580 35,000  Level Denver Center
Fri 12:39:00 AM 40.9169 -106.5172 92° East 509 586 35,000  Level Denver Center
Fri 12:40:03 AM 40.9119 -106.3375 92° East 512 589 35,000  Level Denver Center
Fri 12:41:04 AM 40.9094 -106.1878 91° East 513 590 35,000  Level Denver Center
Fri 12:42:05 AM 40.9017 -105.9572 92° East 511 588 35,000  Level Denver Center
Fri 12:43:06 AM 40.8956 -105.7703 92° East 511 588 35,000  Level Denver Center
Fri 12:44:29 AM 40.8875 -105.5078 92° East 511 588 35,000  Level Denver Center
Fri 12:45:31 AM 40.8819 -105.3211 92° East 508 585 35,000  Level Denver Center
Fri 12:46:33 AM 40.8744 -105.1328 93° East 512 589 35,000  Level Denver Center
Fri 12:47:31 AM 40.8686 -104.9439 92° East 513 590 35,000  Level Denver Center
Fri 12:48:34 AM 40.8606 -104.7550 93° East 515 593 35,000  Level Denver Center
Fri 12:49:35 AM 40.8522 -104.5672 93° East 514 592 35,000  Level Denver Center
Fri 12:50:36 AM 40.8444 -104.3767 93° East 518 596 35,000  Level Denver Center
Fri 12:51:34 AM 40.8339 -104.1492 93° East 517 595 35,000  Level Denver Center
Fri 12:52:38 AM 40.8261 -103.9628 93° East 511 588 35,000  Level Denver Center
Fri 12:53:37 AM 40.8181 -103.7753 93° East 511 588 35,000  Level Denver Center
Fri 12:54:38 AM 40.8078 -103.5875 94° East 511 588 35,000  Level Denver Center
Fri 12:55:40 AM 40.8000 -103.4369 94° East 514 592 35,000  Level Denver Center
Fri 12:56:41 AM 40.7875 -103.2111 94° East 516 594 35,000  Level Denver Center
Fri 12:57:41 AM 40.7778 -103.0208 94° East 520 598 35,000  Level Denver Center
Fri 12:58:42 AM 40.7675 -102.8483 94° East 521 600 35,000  Level Denver Center
Fri 12:59:41 AM 40.7572 -102.6386 94° East 514 592 35,000  Level Denver Center
Fri 01:00:42 AM 40.7456 -102.4558 95° East 521 600 35,000  Level Denver Center
Fri 01:01:44 AM 40.7342 -102.2731 95° East 523 602 35,000  Level Denver Center
Fri 01:02:45 AM 40.7211 -102.0619 95° East 519 597 35,000  Level Denver Center
Fri 01:03:43 AM 40.7097 -101.8814 95° East 519 597 35,000  Level Denver Center
Fri 01:04:46 AM 40.7003 -101.7306 95° East 520 598 35,000  Level Denver Center
Fri 01:05:46 AM 40.6703 -101.4964 100° East 509 586 35,000  Level Denver Center
Fri 01:06:47 AM 40.6397 -101.3253 103° East 505 581 35,000  Level Denver Center
Fri 01:07:45 AM 40.6050 -101.1258 103° East 504 580 35,000  Level Denver Center
Fri 01:08:48 AM 40.5756 -100.9542 103° East 507 583 35,000  Level Denver Center
Fri 01:09:49 AM 40.5453 -100.7831 103° East 509 586 35,000  Level Denver Center
Fri 01:11:49 AM 40.4792 -100.4097 103° East 510 587 35,000  Level Denver Center
Fri 01:12:50 AM 40.4478 -100.2356 103° East 514 592 35,000  Level Denver Center
Fri 01:13:51 AM 40.4111 -100.0331 103° East 514 592 35,000  Level Denver Center
Fri 01:14:51 AM 40.3814 -99.8714 104° East 509 586 35,000  Level Denver Center
Fri 01:15:52 AM 40.3483 -99.6939 104° East 504 580 35,000  Level Denver Center
Fri 01:16:52 AM 40.3144 -99.5142 104° East 508 585 35,000  Level Denver Center
Fri 01:17:53 AM 40.2806 -99.3344 104° East 510 587 35,000  Level Denver Center
Fri 01:18:53 AM 40.2472 -99.1578 104° East 506 582 35,000  Level Denver Center
Fri 01:19:24 AM 40.2267 -99.0533 104° East 507 583 35,000  Level Minneapolis Center
Fri 01:22:00 AM 40.1447 -98.6746 104° East  Level FlightAware Approximate
Fri 01:27:39 AM 39.9400 -97.6156 105° East 492 566 35,000  Level Kansas City Center
Fri 01:28:28 AM 39.9036 -97.4439 105° East 490 564 35,000  Level Minneapolis Center
Fri 01:29:00 AM 39.9258 -97.5738 104° East  Level FlightAware Approximate
Fri 01:29:29 AM 39.8744 -97.3044 105° East 491 565 35,000  Level Minneapolis Center
Fri 01:30:00 AM 39.8937 -97.4171 105° East  Level FlightAware Approximate
Fri 01:30:29 AM 39.8328 -97.1042 105° East 483 556 34,300  Level Minneapolis Center
Fri 01:31:00 AM 39.8557 -97.2628 109° East  Level FlightAware Approximate
Fri 01:31:29 AM 39.7978 -96.9436 106° East 470 541 33,200  Level Minneapolis Center
Fri 01:32:00 AM 39.8153 -97.1097 105° East  Level FlightAware Approximate
Fri 01:32:30 AM 39.7644 -96.7847 105° East 463 533 32,300  Level Minneapolis Center
Fri 01:33:00 AM 39.7840 -96.9529 105° East  Level FlightAware Approximate
Fri 01:33:30 AM 39.7294 -96.6242 106° East 462 532 31,300  Level Minneapolis Center
Fri 01:34:38 AM 39.6878 -96.4342 106° East 469 540 28,900 -2,186 Descending Kansas City Center
Fri 01:35:39 AM 39.6542 -96.2797 106° East 466 536 26,600 -2,281 Descending Kansas City Center
Fri 01:36:39 AM 39.6211 -96.1322 106° East 448 516 24,300 -2,250 Descending Kansas City Center
Fri 01:37:39 AM 39.5894 -95.9908 106° East 430 495 22,100 -2,300 Descending Kansas City Center
Fri 01:38:39 AM 39.5544 -95.8328 106° East 412 474 19,700 -2,182 Descending Kansas City Center
Fri 01:39:40 AM 39.5247 -95.7025 106° East 397 457 17,700 -1,884 Descending Kansas City Center
Fri 01:40:40 AM 39.4861 -95.5833 113° Southeast 380 437 15,900 -1,918 Descending Kansas City Center
Fri 01:41:42 AM 39.4436 -95.4542 113° Southeast 370 426 13,800 -1,967 Descending Kansas City Center
Fri 01:42:42 AM 39.4033 -95.3319 113° Southeast 359 413 11,900 -1,587 Descending Kansas City Center
Fri 01:43:43 AM 39.3678 -95.2250 113° Southeast 338 389 10,600 -1,462 Descending Kansas City Center
Fri 01:44:41 AM 39.3353 -95.1233 112° Southeast 317 365 9,000 -1,613 Descending Kansas City Center
Fri 01:45:42 AM 39.3014 -95.0250 114° Southeast 311 358 7,400 -1,415 Descending Kansas City Center
Fri 01:46:44 AM 39.2658 -94.9203 114° Southeast 279 321 6,100 -1,277 Descending Kansas City Center
Fri 01:49:37 AM 39.2167 -94.7333 109° East 138 159 2,400 -1,120 Descending Kansas City TRACON
Fri 01:50:45 AM 39.2514 -94.7178 19° North 123 142 1,600 -706 Descending Kansas City Center

Login

Don't have an account? Register now (free) for customized features, flight alerts, and more!